createdAt,value
2023-06-17T00:02:25.565Z,10.10
2023-06-17T00:04:53.280Z,9.00
2023-06-17T00:07:20.729Z,8.50
2023-06-17T00:09:48.271Z,8.20
2023-06-17T00:12:16.257Z,8.25
2023-06-17T00:14:44.717Z,8.00
2023-06-17T00:17:12.306Z,8.00
2023-06-17T00:19:41.372Z,8.02
2023-06-17T00:22:09.794Z,8.07
2023-06-17T00:24:37.853Z,7.47
2023-06-17T00:27:05.933Z,7.07
2023-06-17T00:29:33.367Z,7.12
2023-06-17T00:32:00.805Z,6.80
2023-06-17T00:34:28.468Z,7.20
2023-06-17T00:36:55.919Z,7.20
2023-06-17T00:39:23.392Z,7.07
2023-06-17T00:41:51.172Z,6.80
2023-06-17T00:44:18.858Z,6.50
2023-06-17T00:46:49.000Z,6.57
2023-06-17T00:49:17.338Z,6.78
2023-06-17T00:51:49.054Z,6.70
2023-06-17T00:54:25.384Z,6.65
2023-06-17T00:56:54.282Z,6.68
2023-06-17T00:59:21.749Z,6.95
2023-06-17T01:01:49.482Z,6.77
2023-06-17T01:04:17.124Z,6.53
2023-06-17T01:07:10.899Z,6.70
2023-06-17T01:09:40.051Z,6.62
2023-06-17T01:12:08.916Z,6.78
2023-06-17T01:14:36.776Z,6.77
2023-06-17T01:17:05.305Z,6.30
2023-06-17T01:19:36.516Z,6.18
2023-06-17T01:22:07.330Z,6.37
2023-06-17T01:24:35.390Z,6.43
2023-06-17T01:27:05.959Z,6.30
2023-06-17T01:29:42.431Z,6.22
2023-06-17T01:32:11.241Z,6.50
2023-06-17T01:34:55.234Z,6.40
2023-06-17T01:37:44.239Z,6.65
2023-06-17T01:40:14.171Z,6.80
2023-06-17T01:42:46.979Z,6.80
2023-06-17T01:45:15.019Z,6.95
2023-06-17T01:47:43.395Z,7.03
2023-06-17T01:50:11.472Z,6.90
2023-06-17T01:52:41.345Z,6.63
2023-06-17T01:55:09.158Z,6.05
2023-06-17T01:57:36.632Z,6.78
2023-06-17T02:00:05.559Z,6.90
2023-06-17T02:02:33.277Z,6.57
2023-06-17T02:05:02.242Z,6.05
2023-06-17T02:07:30.134Z,5.90
2023-06-17T02:09:57.939Z,6.18
2023-06-17T02:12:26.133Z,6.50
2023-06-17T02:14:53.734Z,6.53
2023-06-17T02:17:21.391Z,6.15
2023-06-17T02:19:49.244Z,6.00
2023-06-17T02:22:16.946Z,6.15
2023-06-17T02:24:44.450Z,6.30
2023-06-17T02:27:12.058Z,6.15
2023-06-17T02:29:40.120Z,6.45
2023-06-17T02:32:10.624Z,6.20
2023-06-17T02:34:39.597Z,6.90
2023-06-17T02:37:08.675Z,6.90
2023-06-17T02:39:37.368Z,6.15
2023-06-17T02:42:05.205Z,6.90
2023-06-17T02:44:32.976Z,6.82
2023-06-17T02:47:00.668Z,6.97
2023-06-17T02:49:28.316Z,6.50
2023-06-17T02:51:56.046Z,6.68
2023-06-17T02:54:23.534Z,6.78
2023-06-17T02:56:51.359Z,6.72
2023-06-17T02:59:19.184Z,6.37
2023-06-17T03:01:47.455Z,6.85
2023-06-17T03:04:15.374Z,6.72
2023-06-17T03:06:43.265Z,7.00
2023-06-17T03:09:11.323Z,6.82
2023-06-17T03:11:40.803Z,6.70
2023-06-17T03:14:08.912Z,6.90
2023-06-17T03:16:37.351Z,6.62
2023-06-17T03:19:05.007Z,6.55
2023-06-17T03:21:36.866Z,6.70
2023-06-17T03:24:04.986Z,6.91
2023-06-17T03:26:32.977Z,6.87
2023-06-17T03:29:00.434Z,7.25
2023-06-17T03:31:27.853Z,7.62
2023-06-17T03:33:55.978Z,6.93
2023-06-17T03:36:26.355Z,6.72
2023-06-17T03:38:54.118Z,6.63
2023-06-17T03:41:22.237Z,6.70
2023-06-17T03:43:51.037Z,6.50
2023-06-17T03:46:19.558Z,6.50
2023-06-17T03:48:48.014Z,6.50
2023-06-17T03:51:15.901Z,5.93
2023-06-17T03:53:43.738Z,6.30
2023-06-17T03:56:11.584Z,6.72
2023-06-17T03:58:39.597Z,6.32
2023-06-17T04:01:13.943Z,7.00
2023-06-17T04:03:43.209Z,6.57
2023-06-17T04:06:11.322Z,6.13
2023-06-17T04:08:38.752Z,6.68
2023-06-17T04:11:06.946Z,6.60
2023-06-17T04:13:35.247Z,6.68
2023-06-17T04:16:03.495Z,6.32
2023-06-17T04:18:31.525Z,6.28
2023-06-17T04:21:01.167Z,6.30
2023-06-17T04:23:29.101Z,6.60
2023-06-17T04:25:57.952Z,6.65
2023-06-17T04:28:25.689Z,6.85
2023-06-17T04:30:54.190Z,7.05
2023-06-17T04:33:25.806Z,7.05
2023-06-17T04:35:55.060Z,6.54
2023-06-17T04:38:24.307Z,5.87
2023-06-17T04:40:54.647Z,6.68
2023-06-17T04:43:24.289Z,6.80
2023-06-17T04:45:52.938Z,6.10
2023-06-17T04:48:22.000Z,6.45
2023-06-17T04:50:49.567Z,7.00
2023-06-17T04:53:17.562Z,6.50
2023-06-17T04:55:46.702Z,7.00
2023-06-17T04:58:15.400Z,6.75
2023-06-17T05:00:43.231Z,6.68
2023-06-17T05:03:11.887Z,7.12
2023-06-17T05:05:39.609Z,6.97
2023-06-17T05:08:07.978Z,6.95
2023-06-17T05:10:35.809Z,7.60
2023-06-17T05:13:03.899Z,6.68
2023-06-17T05:15:32.376Z,6.90
2023-06-17T05:17:59.851Z,6.75
2023-06-17T05:20:27.636Z,7.03
2023-06-17T05:22:55.778Z,6.55
2023-06-17T05:25:23.517Z,7.03
2023-06-17T05:27:51.672Z,6.87
2023-06-17T05:30:20.172Z,6.70
2023-06-17T05:32:48.311Z,6.95
2023-06-17T05:35:15.845Z,7.32
2023-06-17T05:37:43.596Z,7.28
2023-06-17T05:40:11.421Z,6.70
2023-06-17T05:42:39.471Z,7.28
2023-06-17T05:45:08.693Z,6.95
2023-06-17T05:47:36.248Z,7.00
2023-06-17T05:50:04.062Z,6.68
2023-06-17T05:52:32.605Z,6.65
2023-06-17T05:55:00.714Z,6.80
2023-06-17T05:57:28.218Z,6.87
2023-06-17T05:59:56.294Z,6.70
2023-06-17T06:02:23.822Z,6.30
2023-06-17T06:04:51.625Z,6.50
2023-06-17T06:07:19.066Z,6.37
2023-06-17T06:09:46.634Z,6.50
2023-06-17T06:12:17.582Z,6.80
2023-06-17T06:14:45.102Z,6.32
2023-06-17T06:17:12.470Z,6.10
2023-06-17T06:19:40.270Z,6.45
2023-06-17T06:22:07.806Z,6.10
2023-06-17T06:24:35.865Z,6.40
2023-06-17T06:27:04.124Z,6.28
2023-06-17T06:29:33.241Z,6.67
2023-06-17T06:32:00.725Z,6.30
2023-06-17T06:34:30.658Z,6.40
2023-06-17T06:36:59.374Z,6.05
2023-06-17T06:39:27.212Z,6.30
2023-06-17T06:41:55.549Z,6.62
2023-06-17T06:44:24.189Z,6.12
2023-06-17T06:46:57.334Z,5.95
2023-06-17T06:49:25.004Z,5.63
2023-06-17T06:51:52.486Z,6.20
2023-06-17T06:54:20.531Z,6.45
2023-06-17T06:56:48.308Z,6.30
2023-06-17T06:59:16.054Z,5.80
2023-06-17T07:01:43.568Z,5.93
2023-06-17T07:04:11.694Z,5.70
2023-06-17T07:06:39.281Z,5.53
2023-06-17T07:09:07.500Z,5.82
2023-06-17T07:11:36.314Z,6.00
2023-06-17T07:14:04.485Z,6.10
2023-06-17T07:16:33.510Z,5.70
2023-06-17T07:19:04.603Z,5.60
2023-06-17T07:21:32.761Z,5.62
2023-06-17T07:24:00.795Z,5.43
2023-06-17T07:26:28.845Z,5.87
2023-06-17T07:28:56.628Z,5.40
2023-06-17T07:31:24.740Z,5.10
2023-06-17T07:33:57.885Z,5.15
2023-06-17T07:36:27.254Z,4.95
2023-06-17T07:38:56.818Z,4.78
2023-06-17T07:41:26.615Z,5.00
2023-06-17T07:43:54.062Z,4.93
2023-06-17T07:46:21.925Z,4.95
2023-06-17T07:48:49.452Z,4.57
2023-06-17T07:51:16.963Z,4.45
2023-06-17T07:53:44.711Z,4.72
2023-06-17T07:56:12.227Z,5.35
2023-06-17T07:58:39.625Z,4.20
2023-06-17T08:01:07.362Z,4.47
2023-06-17T08:03:35.260Z,4.82
2023-06-17T08:06:02.797Z,4.15
2023-06-17T08:08:30.642Z,6.40
2023-06-17T08:10:58.391Z,5.65
2023-06-17T08:13:25.863Z,8.48
2023-06-17T08:15:53.396Z,4.50
2023-06-17T08:18:24.046Z,5.20
2023-06-17T08:20:52.050Z,4.90
2023-06-17T08:23:19.566Z,4.93
2023-06-17T08:25:47.879Z,4.35
2023-06-17T08:28:15.358Z,4.50
2023-06-17T08:30:42.804Z,4.67
2023-06-17T08:33:10.575Z,4.25
2023-06-17T08:35:40.312Z,4.50
2023-06-17T08:38:07.715Z,4.40
2023-06-17T08:40:36.668Z,4.60
2023-06-17T08:43:04.616Z,4.22
2023-06-17T08:45:32.078Z,4.37
2023-06-17T08:47:59.906Z,4.35
2023-06-17T08:50:28.972Z,4.00
2023-06-17T08:52:56.608Z,4.47
2023-06-17T08:55:24.292Z,4.10
2023-06-17T08:57:52.389Z,4.50
2023-06-17T09:00:20.392Z,4.10
2023-06-17T09:02:48.763Z,3.70
2023-06-17T09:05:16.927Z,4.20
2023-06-17T09:07:44.861Z,4.00
2023-06-17T09:10:16.104Z,4.00
2023-06-17T09:12:43.491Z,4.30
2023-06-17T09:15:16.600Z,4.10
2023-06-17T09:17:47.521Z,3.70
2023-06-17T09:20:16.903Z,3.90
2023-06-17T09:22:47.303Z,3.83
2023-06-17T09:25:16.311Z,3.62
2023-06-17T09:28:02.583Z,4.12
2023-06-17T09:30:37.593Z,3.83
2023-06-17T09:33:17.855Z,4.00
2023-06-17T09:35:46.051Z,3.83
2023-06-17T09:38:16.786Z,3.80
2023-06-17T09:40:44.182Z,4.03
2023-06-17T09:43:26.723Z,3.85
2023-06-17T09:46:00.982Z,3.90
2023-06-17T09:48:33.464Z,3.58
2023-06-17T09:51:01.212Z,3.60
2023-06-17T09:53:30.733Z,3.92
2023-06-17T09:56:00.079Z,3.78
2023-06-17T09:58:30.408Z,3.67
2023-06-17T10:00:59.111Z,3.78
2023-06-17T10:03:26.942Z,4.00
2023-06-17T10:05:58.427Z,4.07
2023-06-17T10:08:26.322Z,3.67
2023-06-17T10:10:54.734Z,3.70
2023-06-17T10:13:22.987Z,3.37
2023-06-17T10:15:51.298Z,3.53
2023-06-17T10:18:20.217Z,3.65
2023-06-17T10:20:49.393Z,3.70
2023-06-17T10:23:20.161Z,3.70
2023-06-17T10:25:47.976Z,3.83
2023-06-17T10:28:17.133Z,3.92
2023-06-17T10:30:46.172Z,3.78
2023-06-17T10:33:13.855Z,3.75
2023-06-17T10:35:43.034Z,3.70
2023-06-17T10:38:11.882Z,3.70
2023-06-17T10:40:48.557Z,3.83
2023-06-17T10:43:17.490Z,3.90
2023-06-17T10:45:52.334Z,3.67
2023-06-17T10:48:30.930Z,3.95
2023-06-17T10:51:02.055Z,4.15
2023-06-17T10:53:31.961Z,3.60
2023-06-17T10:56:01.062Z,3.70
2023-06-17T10:58:32.732Z,3.90
2023-06-17T11:01:08.816Z,3.85
2023-06-17T11:03:37.335Z,3.70
2023-06-17T11:06:06.820Z,3.40
2023-06-17T11:08:35.780Z,3.58
2023-06-17T11:11:21.776Z,3.60
2023-06-17T11:13:52.585Z,3.53
2023-06-17T11:16:20.153Z,3.67
2023-06-17T11:18:49.990Z,3.60
2023-06-17T11:21:19.340Z,3.10
2023-06-17T11:23:46.778Z,3.33
2023-06-17T11:26:14.324Z,3.30
2023-06-17T11:28:42.537Z,3.22
2023-06-17T11:31:10.062Z,3.30
2023-06-17T11:33:39.937Z,3.37
2023-06-17T11:36:09.721Z,3.42
2023-06-17T11:38:37.190Z,3.37
2023-06-17T11:41:04.897Z,3.50
2023-06-17T11:43:32.790Z,3.33
2023-06-17T11:46:00.759Z,3.10
2023-06-17T11:48:34.937Z,3.40
2023-06-17T11:51:02.989Z,3.20
2023-06-17T11:53:38.019Z,3.28
2023-06-17T11:56:06.938Z,3.10
2023-06-17T11:58:39.894Z,2.83
2023-06-17T12:01:10.971Z,3.00
2023-06-17T12:03:38.864Z,2.92
2023-06-17T12:06:06.744Z,3.22
2023-06-17T12:08:35.448Z,2.87
2023-06-17T12:11:24.019Z,3.15
2023-06-17T12:13:51.837Z,2.87
2023-06-17T12:16:27.207Z,3.00
2023-06-17T12:18:54.750Z,2.85
2023-06-17T12:21:22.903Z,2.70
2023-06-17T12:23:52.392Z,2.75
2023-06-17T12:26:26.661Z,2.80
2023-06-17T12:28:55.418Z,2.60
2023-06-17T12:31:24.236Z,2.50
2023-06-17T12:33:51.920Z,2.53
2023-06-17T12:36:19.637Z,2.70
2023-06-17T12:38:47.485Z,2.67
2023-06-17T12:41:15.916Z,2.60
2023-06-17T12:43:43.600Z,2.40
2023-06-17T12:46:11.102Z,2.30
2023-06-17T12:48:38.590Z,2.27
2023-06-17T12:51:06.283Z,2.20
2023-06-17T12:53:33.720Z,2.60
2023-06-17T12:56:02.442Z,2.50
2023-06-17T12:58:30.159Z,2.72
2023-06-17T13:00:58.055Z,2.75
2023-06-17T13:03:25.488Z,2.60
2023-06-17T13:05:53.209Z,2.47
2023-06-17T13:08:20.645Z,2.40
2023-06-17T13:10:48.182Z,2.20
2023-06-17T13:13:15.938Z,2.10
2023-06-17T13:15:43.379Z,1.90
2023-06-17T13:18:10.905Z,2.00
2023-06-17T13:20:38.664Z,2.20
2023-06-17T13:23:06.663Z,2.05
2023-06-17T13:25:34.041Z,2.10
2023-06-17T13:28:02.680Z,2.20
2023-06-17T13:30:31.744Z,2.22
2023-06-17T13:32:59.252Z,1.90
2023-06-17T13:35:26.945Z,2.30
2023-06-17T13:37:56.083Z,2.12
2023-06-17T13:40:23.818Z,2.37
2023-06-17T13:42:51.761Z,2.00
2023-06-17T13:45:19.688Z,2.00
2023-06-17T13:47:48.272Z,1.90
2023-06-17T13:50:15.950Z,2.17
2023-06-17T13:52:43.469Z,2.03
2023-06-17T13:55:10.902Z,1.73
2023-06-17T13:57:38.581Z,2.00
2023-06-17T14:00:06.696Z,1.90
2023-06-17T14:02:34.446Z,2.30
2023-06-17T14:05:02.106Z,2.12
2023-06-17T14:07:29.557Z,2.30
2023-06-17T14:09:57.308Z,2.10
2023-06-17T14:12:24.789Z,1.90
2023-06-17T14:14:52.180Z,2.10
2023-06-17T14:17:19.881Z,2.20
2023-06-17T14:19:47.295Z,2.00
2023-06-17T14:22:14.706Z,2.22
2023-06-17T14:24:43.019Z,1.92
2023-06-17T14:27:14.103Z,2.20
2023-06-17T14:29:41.554Z,1.87
2023-06-17T14:32:09.354Z,1.80
2023-06-17T14:34:36.760Z,2.03
2023-06-17T14:37:04.357Z,2.20
2023-06-17T14:39:32.135Z,2.30
2023-06-17T14:41:59.572Z,2.10
2023-06-17T14:44:26.977Z,2.22
2023-06-17T14:46:54.721Z,2.08
2023-06-17T14:49:22.150Z,2.00
2023-06-17T14:51:51.627Z,1.90
2023-06-17T14:54:19.441Z,1.97
2023-06-17T14:56:46.914Z,1.85
2023-06-17T14:59:14.935Z,2.10
2023-06-17T15:01:42.654Z,2.12
2023-06-17T15:04:13.390Z,2.07
2023-06-17T15:06:42.221Z,2.20
2023-06-17T15:09:28.810Z,1.92
2023-06-17T15:12:04.459Z,1.92
2023-06-17T15:14:34.932Z,2.00
2023-06-17T15:17:02.838Z,2.50
2023-06-17T15:19:31.803Z,2.30
2023-06-17T15:21:59.770Z,2.85
2023-06-17T15:24:27.340Z,6.20
2023-06-17T15:26:54.778Z,4.50
2023-06-17T15:29:22.518Z,3.67
2023-06-17T15:31:49.934Z,3.92
2023-06-17T15:34:17.339Z,4.30
2023-06-17T15:36:45.077Z,2.37
2023-06-17T15:39:32.578Z,6.80
2023-06-17T15:42:00.342Z,2.62
2023-06-17T15:44:29.114Z,1.90
2023-06-17T15:46:56.569Z,3.08
2023-06-17T15:49:24.250Z,4.12
2023-06-17T15:51:51.668Z,2.07
2023-06-17T15:54:19.410Z,2.20
2023-06-17T15:56:47.673Z,2.20
2023-06-17T15:59:15.758Z,2.17
2023-06-17T16:01:43.576Z,2.50
2023-06-17T16:04:33.382Z,2.37
2023-06-17T16:07:05.285Z,2.20
2023-06-17T16:09:35.455Z,1.98
2023-06-17T16:12:04.163Z,2.15
2023-06-17T16:14:33.527Z,1.92
2023-06-17T16:17:02.487Z,1.90
2023-06-17T16:19:32.704Z,2.15
2023-06-17T16:22:00.912Z,1.85
2023-06-17T16:24:28.978Z,2.20
2023-06-17T16:26:57.159Z,2.35
2023-06-17T16:29:24.577Z,7.87
2023-06-17T16:31:52.252Z,2.75
2023-06-17T16:34:19.723Z,2.12
2023-06-17T16:36:47.151Z,2.47
2023-06-17T16:39:14.848Z,4.97
2023-06-17T16:41:42.329Z,4.03
2023-06-17T16:44:09.822Z,3.25
2023-06-17T16:46:37.805Z,2.53
2023-06-17T16:49:05.799Z,3.17
2023-06-17T16:51:33.425Z,3.25
2023-06-17T16:54:03.760Z,3.10
2023-06-17T16:56:33.047Z,3.55
2023-06-17T16:59:02.126Z,3.15
2023-06-17T17:01:30.210Z,3.17
2023-06-17T17:04:01.157Z,3.00
2023-06-17T17:06:28.861Z,2.90
2023-06-17T17:08:56.399Z,2.92
2023-06-17T17:11:23.789Z,3.47
2023-06-17T17:13:51.750Z,3.00
2023-06-17T17:16:19.407Z,3.20
2023-06-17T17:18:47.122Z,2.85
2023-06-17T17:21:14.961Z,3.00
2023-06-17T17:23:42.580Z,3.00
2023-06-17T17:26:13.718Z,2.80
2023-06-17T17:28:42.107Z,2.95
2023-06-17T17:31:10.021Z,2.90
2023-06-17T17:33:37.781Z,3.00
2023-06-17T17:36:06.153Z,2.70
2023-06-17T17:38:33.536Z,2.92
2023-06-17T17:41:01.885Z,3.15
2023-06-17T17:43:30.820Z,3.22
2023-06-17T17:45:58.853Z,3.30
2023-06-17T17:48:26.519Z,2.92
2023-06-17T17:50:54.240Z,2.90
2023-06-17T17:53:21.963Z,3.33
2023-06-17T17:55:49.435Z,3.50
2023-06-17T17:58:17.342Z,3.37
2023-06-17T18:00:44.807Z,3.08
2023-06-17T18:03:12.753Z,3.00
2023-06-17T18:05:40.542Z,3.12
2023-06-17T18:08:07.982Z,3.50
2023-06-17T18:10:35.743Z,3.05
2023-06-17T18:13:03.368Z,3.33
2023-06-17T18:15:30.798Z,3.78
2023-06-17T18:17:59.198Z,3.37
2023-06-17T18:20:26.919Z,3.40
2023-06-17T18:22:54.383Z,3.97
2023-06-17T18:25:22.126Z,3.70
2023-06-17T18:27:49.557Z,3.60
2023-06-17T18:30:16.982Z,3.50
2023-06-17T18:32:44.731Z,3.90
2023-06-17T18:35:12.204Z,3.58
2023-06-17T18:37:41.785Z,3.55
2023-06-17T18:40:10.274Z,3.70
2023-06-17T18:42:37.736Z,3.67
2023-06-17T18:45:09.514Z,3.78
2023-06-17T18:47:37.982Z,3.70
2023-06-17T18:50:07.150Z,4.07
2023-06-17T18:52:34.703Z,4.07
2023-06-17T18:55:02.399Z,4.18
2023-06-17T18:57:30.650Z,4.22
2023-06-17T18:59:58.158Z,4.18
2023-06-17T19:02:28.131Z,4.62
2023-06-17T19:04:55.755Z,4.45
2023-06-17T19:07:23.180Z,4.70
2023-06-17T19:09:51.427Z,4.22
2023-06-17T19:12:19.073Z,4.55
2023-06-17T19:14:47.055Z,4.47
2023-06-17T19:17:15.072Z,4.00
2023-06-17T19:19:42.630Z,3.53
2023-06-17T19:22:10.382Z,3.78
2023-06-17T19:24:38.153Z,4.18
2023-06-17T19:27:05.899Z,4.30
2023-06-17T19:29:34.792Z,3.90
2023-06-17T19:32:02.885Z,4.20
2023-06-17T19:34:30.285Z,4.40
2023-06-17T19:36:57.702Z,3.97
2023-06-17T19:39:25.391Z,4.10
2023-06-17T19:41:52.824Z,4.30
2023-06-17T19:44:20.238Z,4.10
2023-06-17T19:46:48.025Z,4.05
2023-06-17T19:49:15.860Z,4.47
2023-06-17T19:51:43.281Z,4.40
2023-06-17T19:54:11.036Z,4.60
2023-06-17T19:56:38.445Z,4.82
2023-06-17T19:59:05.870Z,4.73
2023-06-17T20:01:33.612Z,4.80
2023-06-17T20:04:01.438Z,4.65
2023-06-17T20:06:29.986Z,4.70
2023-06-17T20:08:57.418Z,4.35
2023-06-17T20:11:26.908Z,5.10
2023-06-17T20:13:54.364Z,5.03
2023-06-17T20:16:22.301Z,4.87
2023-06-17T20:18:50.006Z,4.85
2023-06-17T20:21:17.625Z,5.07
2023-06-17T20:23:45.102Z,5.43
2023-06-17T20:26:12.829Z,4.97
2023-06-17T20:28:40.232Z,4.75
2023-06-17T20:31:07.862Z,4.62
2023-06-17T20:33:36.556Z,5.20
2023-06-17T20:36:06.173Z,4.70
2023-06-17T20:38:33.648Z,4.60
2023-06-17T20:41:01.464Z,4.65
2023-06-17T20:43:29.061Z,4.78
2023-06-17T20:45:57.083Z,5.00
2023-06-17T20:48:24.838Z,5.20
2023-06-17T20:50:52.309Z,5.20
2023-06-17T20:53:19.715Z,4.93
2023-06-17T20:55:47.553Z,5.22
2023-06-17T20:58:16.082Z,6.05
2023-06-17T21:00:43.553Z,5.80
2023-06-17T21:03:34.383Z,5.80
2023-06-17T21:06:01.860Z,5.80
2023-06-17T21:08:29.589Z,5.95
2023-06-17T21:10:57.277Z,5.87
2023-06-17T21:13:24.708Z,5.60
2023-06-17T21:15:52.501Z,5.45
2023-06-17T21:18:21.493Z,5.40
2023-06-17T21:20:51.308Z,5.93
2023-06-17T21:23:18.987Z,5.70
2023-06-17T21:25:46.434Z,5.53
2023-06-17T21:28:13.838Z,5.68
2023-06-17T21:30:41.759Z,5.47
2023-06-17T21:33:09.326Z,5.40
2023-06-17T21:35:36.817Z,5.87
2023-06-17T21:38:04.515Z,5.60
2023-06-17T21:40:31.958Z,5.72
2023-06-17T21:42:59.359Z,6.07
2023-06-17T21:45:27.085Z,5.90
2023-06-17T21:47:54.532Z,6.12
2023-06-17T21:50:22.229Z,5.22
2023-06-17T21:52:50.126Z,5.50
2023-06-17T21:55:17.530Z,5.23
2023-06-17T21:57:45.332Z,5.60
2023-06-17T22:00:15.720Z,5.45
2023-06-17T22:02:43.504Z,5.25
2023-06-17T22:05:11.104Z,5.22
2023-06-17T22:07:39.072Z,5.40
2023-06-17T22:10:07.438Z,5.20
2023-06-17T22:12:34.981Z,5.00
2023-06-17T22:15:04.106Z,4.75
2023-06-17T22:17:33.086Z,5.12
2023-06-17T22:20:00.530Z,4.73
2023-06-17T22:22:27.896Z,4.78
2023-06-17T22:24:55.559Z,4.95
2023-06-17T22:27:22.966Z,5.20
2023-06-17T22:29:50.546Z,5.55
2023-06-17T22:32:18.278Z,5.70
2023-06-17T22:34:45.772Z,4.70
2023-06-17T22:37:13.177Z,5.45
2023-06-17T22:39:40.893Z,4.90
2023-06-17T22:42:08.299Z,5.20
2023-06-17T22:44:35.796Z,4.93
2023-06-17T22:47:03.686Z,4.93
2023-06-17T22:49:32.445Z,4.97
2023-06-17T22:51:59.896Z,4.78
2023-06-17T22:54:27.543Z,5.15
2023-06-17T22:56:54.959Z,4.93
2023-06-17T22:59:22.345Z,5.12
2023-06-17T23:01:50.112Z,5.15
2023-06-17T23:04:17.565Z,4.65
2023-06-17T23:06:45.001Z,4.97
2023-06-17T23:09:12.720Z,4.90
2023-06-17T23:11:40.130Z,4.65
2023-06-17T23:14:09.325Z,5.00
2023-06-17T23:16:37.248Z,4.78
2023-06-17T23:19:04.691Z,4.87
2023-06-17T23:21:34.962Z,4.82
2023-06-17T23:24:04.450Z,5.22
2023-06-17T23:26:33.650Z,4.70
2023-06-17T23:29:01.071Z,5.12
2023-06-17T23:31:29.976Z,4.82
2023-06-17T23:33:57.452Z,4.60
2023-06-17T23:36:24.892Z,4.75
2023-06-17T23:38:52.855Z,4.45
2023-06-17T23:41:20.348Z,4.22
2023-06-17T23:43:47.877Z,4.80
2023-06-17T23:46:16.834Z,4.43
2023-06-17T23:48:44.356Z,4.80
2023-06-17T23:51:11.839Z,4.40
2023-06-17T23:53:39.572Z,4.17
2023-06-17T23:56:07.010Z,4.70
2023-06-17T23:58:34.472Z,4.50
